createdAt,value
2022-08-26T00:01:53.784Z,100164.75
2022-08-26T00:04:22.581Z,100163.88
2022-08-26T00:06:50.832Z,100164.31
2022-08-26T00:09:18.773Z,100168.13
2022-08-26T00:11:47.190Z,100161.06
2022-08-26T00:14:16.196Z,100165.72
2022-08-26T00:16:48.146Z,100166.44
2022-08-26T00:19:17.196Z,100166.44
2022-08-26T00:21:45.180Z,100165.44
2022-08-26T00:24:12.867Z,100165.59
2022-08-26T00:26:41.394Z,100173.06
2022-08-26T00:29:09.504Z,100163.09
2022-08-26T00:31:37.471Z,100161.97
2022-08-26T00:34:07.100Z,100165.63
2022-08-26T00:36:37.355Z,100162.22
2022-08-26T00:39:07.136Z,100153.75
2022-08-26T00:41:37.560Z,100155.75
2022-08-26T00:44:05.427Z,100163.09
2022-08-26T00:46:39.133Z,100167.59
2022-08-26T00:49:18.216Z,100169.72
2022-08-26T00:51:49.770Z,100165.38
2022-08-26T00:54:19.020Z,100165.50
2022-08-26T00:56:52.073Z,100162.13
2022-08-26T00:59:21.082Z,100149.88
2022-08-26T01:01:49.019Z,100153.53
2022-08-26T01:04:22.218Z,100150.72
2022-08-26T01:06:53.288Z,100151.84
2022-08-26T01:09:23.450Z,100154.97
2022-08-26T01:11:55.727Z,100151.59
2022-08-26T01:14:27.083Z,100148.22
2022-08-26T01:16:54.532Z,100145.53
2022-08-26T01:19:29.287Z,100149.06
2022-08-26T01:21:59.844Z,100147.38
2022-08-26T01:24:30.341Z,100145.09
2022-08-26T01:27:01.167Z,100139.75
2022-08-26T01:29:31.110Z,100134.38
2022-08-26T01:31:59.385Z,100138.91
2022-08-26T01:34:30.181Z,100135.25
2022-08-26T01:37:05.434Z,100131.56
2022-08-26T01:39:36.367Z,100132.41
2022-08-26T01:42:10.508Z,100132.28
2022-08-26T01:44:50.340Z,100127.91
2022-08-26T01:47:21.821Z,100133.28
2022-08-26T01:49:53.673Z,100134.94
2022-08-26T01:52:27.599Z,100134.38
2022-08-26T01:54:59.510Z,100129.72
2022-08-26T01:57:28.581Z,100133.81
2022-08-26T02:00:01.488Z,100131.31
2022-08-26T02:02:29.844Z,100129.47
2022-08-26T02:05:00.400Z,100137.19
2022-08-26T02:07:28.740Z,100130.44
2022-08-26T02:09:57.944Z,100123.25
2022-08-26T02:12:27.269Z,100125.94
2022-08-26T02:15:00.330Z,100127.63
2022-08-26T02:17:33.695Z,100130.28
2022-08-26T02:20:03.922Z,100136.66
2022-08-26T02:22:33.722Z,100137.50
2022-08-26T02:25:12.225Z,100134.81
2022-08-26T02:27:40.814Z,100141.16
2022-08-26T02:30:12.973Z,100149.34
2022-08-26T02:32:41.451Z,100140.75
2022-08-26T02:35:12.862Z,100157.25
2022-08-26T02:37:41.847Z,100162.75
2022-08-26T02:40:14.833Z,100152.34
2022-08-26T02:42:42.592Z,100160.06
2022-08-26T02:45:11.062Z,100156.69
2022-08-26T02:47:39.255Z,100158.41
2022-08-26T02:50:07.780Z,100156.56
2022-08-26T02:52:35.890Z,100155.84
2022-08-26T02:55:06.037Z,100155.28
2022-08-26T02:57:35.434Z,100153.88
2022-08-26T03:00:05.828Z,100155.56
2022-08-26T03:02:33.768Z,100149.34
2022-08-26T03:05:02.090Z,100153.88
2022-08-26T03:07:30.623Z,100158.53
2022-08-26T03:09:58.691Z,100166.69
2022-08-26T03:12:26.560Z,100167.13
2022-08-26T03:14:55.791Z,100167.13
2022-08-26T03:17:23.468Z,100172.47
2022-08-26T03:19:54.767Z,100167.13
2022-08-26T03:22:26.073Z,100175.44
2022-08-26T03:24:54.894Z,100173.34
2022-08-26T03:27:22.510Z,100176.41
2022-08-26T03:29:50.498Z,100185.28
2022-08-26T03:32:19.949Z,100180.88
2022-08-26T03:34:47.764Z,100185.53
2022-08-26T03:37:15.652Z,100185.81
2022-08-26T03:39:43.578Z,100182.56
2022-08-26T03:42:11.226Z,100185.41
2022-08-26T03:44:41.949Z,100200.91
2022-08-26T03:47:10.293Z,100192.31
2022-08-26T03:49:39.782Z,100187.38
2022-08-26T03:52:07.678Z,100191.31
2022-08-26T03:54:35.300Z,100186.81
2022-08-26T03:57:03.207Z,100195.25
2022-08-26T03:59:31.169Z,100200.59
2022-08-26T04:01:58.963Z,100204.84
2022-08-26T04:04:26.826Z,100196.69
2022-08-26T04:06:59.582Z,100196.38
2022-08-26T04:09:28.038Z,100202.44
2022-08-26T04:11:57.504Z,100204.84
2022-08-26T04:14:27.385Z,100211.63
2022-08-26T04:16:57.254Z,100209.91
2022-08-26T04:19:25.676Z,100208.78
2022-08-26T04:21:54.494Z,100196.13
2022-08-26T04:24:25.964Z,100204.69
2022-08-26T04:26:56.267Z,100211.88
2022-08-26T04:29:26.426Z,100206.53
2022-08-26T04:31:55.970Z,100207.53
2022-08-26T04:34:24.662Z,100204.16
2022-08-26T04:36:55.126Z,100195.53
2022-08-26T04:39:25.335Z,100202.03
2022-08-26T04:41:55.463Z,100202.03
2022-08-26T04:44:24.940Z,100201.75
2022-08-26T04:46:53.180Z,100198.09
2022-08-26T04:49:21.292Z,100198.91
2022-08-26T04:51:49.072Z,100201.59
2022-08-26T04:54:17.784Z,100197.69
2022-08-26T04:56:48.212Z,100200.94
2022-08-26T04:59:18.200Z,100198.25
2022-08-26T05:01:48.557Z,100200.38
2022-08-26T05:04:18.947Z,100202.09
2022-08-26T05:06:48.093Z,100205.47
2022-08-26T05:09:16.047Z,100207.88
2022-08-26T05:11:44.071Z,100210.53
2022-08-26T05:14:18.428Z,100204.19
2022-08-26T05:16:47.983Z,100211.81
2022-08-26T05:19:19.125Z,100205.19
2022-08-26T05:21:47.886Z,100211.09
2022-08-26T05:24:16.673Z,100212.66
2022-08-26T05:26:44.851Z,100209.56
2022-08-26T05:29:12.984Z,100207.72
2022-08-26T05:31:42.145Z,100206.88
2022-08-26T05:34:09.812Z,100199.38
2022-08-26T05:36:37.838Z,100197.56
2022-08-26T05:39:06.709Z,100199.13
2022-08-26T05:41:38.367Z,100199.53
2022-08-26T05:44:09.016Z,100199.38
2022-08-26T05:46:37.902Z,100202.34
2022-08-26T05:49:12.475Z,100198.69
2022-08-26T05:51:41.001Z,100195.44
2022-08-26T05:54:10.379Z,100192.44
2022-08-26T05:56:38.980Z,100207.94
2022-08-26T05:59:14.631Z,100205.53
2022-08-26T06:01:43.340Z,100197.25
2022-08-26T06:04:12.516Z,100204.72
2022-08-26T06:06:41.640Z,100210.34
2022-08-26T06:09:11.067Z,100192.97
2022-08-26T06:11:40.368Z,100204.78
2022-08-26T06:14:09.347Z,100196.16
2022-08-26T06:16:41.422Z,100194.56
2022-08-26T06:19:11.798Z,100200.72
2022-08-26T06:21:45.194Z,100195.47
2022-08-26T06:24:14.092Z,100196.28
2022-08-26T06:26:50.525Z,100201.75
2022-08-26T06:29:24.439Z,100205.34
2022-08-26T06:31:53.535Z,100194.53
2022-08-26T06:34:21.784Z,100199.84
2022-08-26T06:36:50.885Z,100204.88
2022-08-26T06:39:21.348Z,100204.59
2022-08-26T06:41:49.286Z,100194.69
2022-08-26T06:44:18.212Z,100191.84
2022-08-26T06:46:50.182Z,100202.28
2022-08-26T06:49:27.019Z,100200.28
2022-08-26T06:51:57.155Z,100197.59
2022-08-26T06:54:26.660Z,100200.44
2022-08-26T06:56:54.487Z,100207.50
2022-08-26T06:59:22.124Z,100218.94
2022-08-26T07:01:50.071Z,100222.31
2022-08-26T07:04:21.765Z,100216.81
2022-08-26T07:06:52.748Z,100213.94
2022-08-26T07:09:26.434Z,100213.50
2022-08-26T07:11:54.638Z,100218.56
2022-08-26T07:14:23.081Z,100226.00
2022-08-26T07:16:51.778Z,100224.72
2022-08-26T07:19:30.066Z,100216.34
2022-08-26T07:22:00.167Z,100225.19
2022-08-26T07:24:29.496Z,100223.72
2022-08-26T07:26:59.776Z,100228.28
2022-08-26T07:29:27.592Z,100230.38
2022-08-26T07:31:56.303Z,100222.69
2022-08-26T07:34:24.582Z,100221.88
2022-08-26T07:36:53.831Z,100223.09
2022-08-26T07:39:23.709Z,100217.50
2022-08-26T07:41:53.534Z,100220.63
2022-08-26T07:44:21.439Z,100222.72
2022-08-26T07:46:52.380Z,100210.00
2022-08-26T07:49:22.428Z,100227.59
2022-08-26T07:51:51.224Z,100213.84
2022-08-26T07:54:19.254Z,100213.91
2022-08-26T07:56:48.823Z,100212.06
2022-08-26T07:59:19.114Z,100212.59
2022-08-26T08:01:47.673Z,100213.59
2022-08-26T08:04:17.951Z,100218.47
2022-08-26T08:06:48.871Z,100215.63
2022-08-26T08:09:17.550Z,100218.88
2022-08-26T08:11:45.249Z,100215.66
2022-08-26T08:14:13.529Z,100213.81
2022-08-26T08:16:46.116Z,100214.63
2022-08-26T08:19:15.514Z,100206.69
2022-08-26T08:21:43.785Z,100213.44
2022-08-26T08:24:12.008Z,100203.53
2022-08-26T08:26:40.071Z,100216.13
2022-08-26T08:29:08.352Z,100204.50
2022-08-26T08:34:28.837Z,100212.91
2022-08-26T08:36:57.032Z,100205.00
2022-08-26T08:39:25.763Z,100211.41
2022-08-26T08:42:30.513Z,100210.56
2022-08-26T08:45:02.768Z,100206.84
2022-08-26T08:47:35.104Z,100201.09
2022-08-26T08:50:12.104Z,100199.06
2022-08-26T08:52:43.133Z,100200.22
2022-08-26T08:55:17.415Z,100201.03
2022-08-26T08:58:02.255Z,100196.97
2022-08-26T09:00:39.686Z,100198.31
2022-08-26T09:03:24.435Z,100200.69
2022-08-26T09:05:53.987Z,100201.81
2022-08-26T09:08:26.742Z,100199.41
2022-08-26T09:10:57.204Z,100190.75
2022-08-26T09:13:27.197Z,100193.06
2022-08-26T09:16:03.926Z,100191.00
2022-08-26T09:18:50.895Z,100196.41
2022-08-26T09:21:21.771Z,100195.19
2022-08-26T09:23:52.910Z,100189.53
2022-08-26T09:26:25.968Z,100191.81
2022-08-26T09:28:58.903Z,100193.47
2022-08-26T09:31:29.029Z,100186.13
2022-08-26T09:34:12.486Z,100191.91
2022-08-26T09:36:49.016Z,100186.69
2022-08-26T09:39:29.812Z,100190.41
2022-08-26T09:42:10.328Z,100194.25
2022-08-26T09:44:59.176Z,100191.19
2022-08-26T09:47:31.654Z,100196.44
2022-08-26T09:50:03.832Z,100197.09
2022-08-26T09:52:33.459Z,100192.88
2022-08-26T09:55:07.285Z,100193.81
2022-08-26T09:57:44.492Z,100191.41
2022-08-26T10:00:34.763Z,100186.34
2022-08-26T10:03:10.356Z,100189.53
2022-08-26T10:05:44.869Z,100186.16
2022-08-26T10:08:27.582Z,100189.03
2022-08-26T10:10:57.870Z,100180.56
2022-08-26T10:13:33.697Z,100180.66
2022-08-26T10:16:13.766Z,100180.19
2022-08-26T10:18:46.891Z,100177.16
2022-08-26T10:21:24.804Z,100176.28
2022-08-26T10:23:57.661Z,100171.63
2022-08-26T10:26:30.617Z,100182.59
2022-08-26T10:29:08.039Z,100182.59
2022-08-26T10:31:41.347Z,100172.50
2022-08-26T10:34:10.130Z,100167.72
2022-08-26T10:37:07.085Z,100165.28
2022-08-26T10:39:41.938Z,100163.44
2022-08-26T10:42:17.714Z,100158.47
2022-08-26T10:44:50.289Z,100155.56
2022-08-26T10:47:24.379Z,100153.44
2022-08-26T10:49:57.521Z,100154.78
2022-08-26T10:52:37.689Z,100145.50
2022-08-26T10:55:15.700Z,100148.91
2022-08-26T10:57:54.753Z,100143.41
2022-08-26T11:00:29.059Z,100140.13
2022-08-26T11:03:06.590Z,100146.06
2022-08-26T11:06:04.533Z,100139.88
2022-08-26T11:08:32.624Z,100141.59
2022-08-26T11:11:01.857Z,100143.72
2022-08-26T11:14:01.422Z,100140.75
2022-08-26T11:16:35.872Z,100140.78
2022-08-26T11:19:13.029Z,100140.84
2022-08-26T11:21:49.466Z,100139.22
2022-08-26T11:24:57.858Z,100144.75
2022-08-26T11:28:01.773Z,100141.81
2022-08-26T11:30:39.207Z,100151.81
2022-08-26T11:33:08.169Z,100148.66
2022-08-26T11:35:54.197Z,100152.41
2022-08-26T11:38:27.079Z,100149.09
2022-08-26T11:41:08.472Z,100148.03
2022-08-26T11:43:38.645Z,100145.50
2022-08-26T11:46:10.684Z,100139.66
2022-08-26T11:48:41.563Z,100144.28
2022-08-26T11:51:11.772Z,100140.34
2022-08-26T11:53:44.299Z,100144.09
2022-08-26T11:56:22.282Z,100135.09
2022-08-26T11:58:54.171Z,100143.66
2022-08-26T12:01:29.054Z,100147.38
2022-08-26T12:04:01.039Z,100143.81
2022-08-26T12:06:34.048Z,100140.41
2022-08-26T12:09:10.624Z,100142.28
2022-08-26T12:11:39.857Z,100135.34
2022-08-26T12:14:16.047Z,100128.03
2022-08-26T12:16:45.172Z,100133.00
2022-08-26T12:19:23.183Z,100124.91
2022-08-26T12:21:58.718Z,100127.28
2022-08-26T12:24:26.396Z,100113.75
2022-08-26T12:27:11.784Z,100123.38
2022-08-26T12:29:40.546Z,100118.88
2022-08-26T12:32:13.492Z,100120.63
2022-08-26T12:34:42.343Z,100118.16
2022-08-26T12:37:12.044Z,100119.44
2022-08-26T12:39:42.314Z,100122.16
2022-08-26T12:42:23.716Z,100124.22
2022-08-26T12:45:00.164Z,100117.59
2022-08-26T12:47:42.935Z,100124.69
2022-08-26T12:50:17.610Z,100123.84
2022-08-26T12:52:54.305Z,100134.31
2022-08-26T12:55:24.881Z,100128.88
2022-08-26T12:58:11.699Z,100132.19
2022-08-26T13:00:41.100Z,100125.03
2022-08-26T13:03:47.428Z,100130.88
2022-08-26T13:06:28.054Z,100130.00
2022-08-26T13:08:58.540Z,100130.81
2022-08-26T13:11:28.429Z,100127.44
2022-08-26T13:13:59.563Z,100131.53
2022-08-26T13:16:27.439Z,100136.06
2022-08-26T13:18:57.936Z,100142.28
2022-08-26T13:21:29.831Z,100148.97
2022-08-26T13:24:08.153Z,100154.78
2022-08-26T13:26:36.154Z,100152.59
2022-08-26T13:29:08.353Z,100162.84
2022-08-26T13:31:40.604Z,100162.22
2022-08-26T13:34:08.607Z,100162.63
2022-08-26T13:36:37.716Z,100161.88
2022-08-26T13:39:06.565Z,100157.88
2022-08-26T13:41:34.161Z,100164.28
2022-08-26T13:44:02.398Z,100162.22
2022-08-26T13:46:30.361Z,100168.53
2022-08-26T13:48:58.326Z,100167.72
2022-08-26T13:51:27.809Z,100165.53
2022-08-26T13:53:57.496Z,100172.28
2022-08-26T13:56:26.231Z,100165.06
2022-08-26T13:58:53.879Z,100169.38
2022-08-26T14:01:21.908Z,100171.81
2022-08-26T14:03:50.015Z,100164.16
2022-08-26T14:06:18.417Z,100170.97
2022-08-26T14:08:46.596Z,100171.34
2022-08-26T14:11:17.965Z,100172.38
2022-08-26T14:13:45.671Z,100172.72
2022-08-26T14:16:21.781Z,100171.41
2022-08-26T14:18:50.863Z,100169.19
2022-08-26T14:21:19.004Z,100167.22
2022-08-26T14:23:46.870Z,100166.84
2022-08-26T14:26:27.884Z,100174.13
2022-08-26T14:28:59.084Z,100169.28
2022-08-26T14:31:27.781Z,100173.28
2022-08-26T14:33:57.577Z,100177.50
2022-08-26T14:36:25.307Z,100174.88
2022-08-26T14:38:53.462Z,100183.94
2022-08-26T14:41:22.407Z,100186.41
2022-08-26T14:43:54.519Z,100185.84
2022-08-26T14:46:24.768Z,100186.94
2022-08-26T14:48:52.410Z,100187.16
2022-08-26T14:51:24.939Z,100188.09
2022-08-26T14:53:52.929Z,100184.91
2022-08-26T14:56:21.250Z,100185.56
2022-08-26T14:58:49.140Z,100186.22
2022-08-26T15:01:16.807Z,100187.38
2022-08-26T15:03:46.088Z,100201.63
2022-08-26T15:06:15.664Z,100185.75
2022-08-26T15:08:43.443Z,100196.09
2022-08-26T15:11:11.758Z,100198.00
2022-08-26T15:13:39.588Z,100188.94
2022-08-26T15:16:08.093Z,100199.97
2022-08-26T15:18:36.077Z,100192.59
2022-08-26T15:21:06.935Z,100198.19
2022-08-26T15:23:35.489Z,100190.94
2022-08-26T15:26:03.917Z,100189.25
2022-08-26T15:28:32.379Z,100197.16
2022-08-26T15:31:00.154Z,100187.94
2022-08-26T15:33:27.868Z,100190.81
2022-08-26T15:35:55.783Z,100188.66
2022-08-26T15:38:24.874Z,100189.00
2022-08-26T15:40:52.638Z,100184.13
2022-08-26T15:43:28.641Z,100192.25
2022-08-26T15:45:57.998Z,100176.59
2022-08-26T15:48:26.052Z,100185.38
2022-08-26T15:50:55.487Z,100187.28
2022-08-26T15:53:24.950Z,100191.53
2022-08-26T15:55:53.911Z,100197.94
2022-08-26T15:58:21.785Z,100198.47
2022-08-26T16:00:49.528Z,100202.53
2022-08-26T16:03:17.731Z,100203.03
2022-08-26T16:05:46.904Z,100202.75
2022-08-26T16:08:15.282Z,100206.94
2022-08-26T16:10:50.301Z,100210.16
2022-08-26T16:13:20.091Z,100215.06
2022-08-26T16:15:48.150Z,100205.97
2022-08-26T16:18:16.615Z,100200.09
2022-08-26T16:20:55.222Z,100206.34
2022-08-26T16:23:37.651Z,100202.31
2022-08-26T16:26:10.724Z,100213.63
2022-08-26T16:28:38.999Z,100212.94
2022-08-26T16:31:07.091Z,100210.25
2022-08-26T16:33:34.886Z,100211.09
2022-08-26T16:36:03.273Z,100205.34
2022-08-26T16:38:31.953Z,100201.16
2022-08-26T16:41:00.642Z,100209.06
2022-08-26T16:43:29.669Z,100217.84
2022-08-26T16:45:57.844Z,100217.00
2022-08-26T16:48:25.746Z,100216.50
2022-08-26T16:50:53.379Z,100217.00
2022-08-26T16:53:21.324Z,100221.91
2022-08-26T16:55:49.745Z,100231.16
2022-08-26T16:58:18.429Z,100233.34
2022-08-26T17:00:47.446Z,100228.78
2022-08-26T17:03:15.266Z,100227.75
2022-08-26T17:05:46.777Z,100225.41
2022-08-26T17:08:27.499Z,100225.41
2022-08-26T17:10:59.239Z,100226.41
2022-08-26T17:13:35.923Z,100234.16
2022-08-26T17:16:07.801Z,100216.28
2022-08-26T17:18:37.307Z,100228.41
2022-08-26T17:21:07.526Z,100227.25
2022-08-26T17:23:35.412Z,100224.19
2022-08-26T17:26:03.773Z,100224.38
2022-08-26T17:28:31.396Z,100225.72
2022-08-26T17:30:59.882Z,100236.78
2022-08-26T17:33:29.789Z,100222.47
2022-08-26T17:35:57.630Z,100234.25
2022-08-26T17:38:26.103Z,100236.44
2022-08-26T17:40:54.243Z,100234.19
2022-08-26T17:43:22.256Z,100234.66
2022-08-26T17:45:50.240Z,100230.47
2022-08-26T17:48:17.942Z,100233.34
2022-08-26T17:50:49.591Z,100228.75
2022-08-26T17:53:19.018Z,100217.31
2022-08-26T17:55:47.037Z,100228.22
2022-08-26T17:58:15.247Z,100223.19
2022-08-26T18:00:45.150Z,100221.47
2022-08-26T18:03:13.184Z,100219.63
2022-08-26T18:05:42.336Z,100214.72
2022-08-26T18:08:11.513Z,100223.63
2022-08-26T18:10:41.295Z,100222.94
2022-08-26T18:13:09.027Z,100225.13
2022-08-26T18:15:40.370Z,100219.38
2022-08-26T18:18:08.345Z,100223.56
2022-08-26T18:20:38.334Z,100224.53
2022-08-26T18:23:06.510Z,100215.97
2022-08-26T18:25:39.258Z,100219.34
2022-08-26T18:28:07.026Z,100214.09
2022-08-26T18:30:35.213Z,100220.66
2022-08-26T18:33:03.242Z,100226.03
2022-08-26T18:35:31.160Z,100217.97
2022-08-26T18:38:10.670Z,100213.22
2022-08-26T18:40:42.522Z,100217.44
2022-08-26T18:43:10.280Z,100213.38
2022-08-26T18:45:38.170Z,100218.91
2022-08-26T18:48:09.837Z,100220.88
2022-08-26T18:50:39.148Z,100224.59
2022-08-26T18:53:06.912Z,100227.59
2022-08-26T18:55:35.227Z,100220.84
2022-08-26T18:58:04.257Z,100222.00
2022-08-26T19:00:33.608Z,100226.53
2022-08-26T19:03:02.111Z,100214.41
2022-08-26T19:05:30.099Z,100212.34
2022-08-26T19:07:57.739Z,100212.97
2022-08-26T19:10:25.408Z,100212.28
2022-08-26T19:12:56.332Z,100204.84
2022-08-26T19:15:28.205Z,100210.56
2022-08-26T19:17:56.135Z,100211.88
2022-08-26T19:20:23.826Z,100205.97
2022-08-26T19:22:51.764Z,100207.44
2022-08-26T19:25:19.624Z,100212.13
2022-08-26T19:27:47.710Z,100207.19
2022-08-26T19:30:15.840Z,100211.06
2022-08-26T19:32:46.488Z,100208.84
2022-08-26T19:35:14.309Z,100208.28
2022-08-26T19:37:42.101Z,100213.66
2022-08-26T19:40:10.549Z,100209.75
2022-08-26T19:42:38.251Z,100208.19
2022-08-26T19:45:07.251Z,100202.44
2022-08-26T19:47:39.859Z,100202.38
2022-08-26T19:50:12.034Z,100199.13
2022-08-26T19:52:40.093Z,100202.50
2022-08-26T19:55:09.409Z,100198.16
2022-08-26T19:57:37.931Z,100202.69
2022-08-26T20:00:09.185Z,100205.75
2022-08-26T20:02:39.804Z,100201.38
2022-08-26T20:05:11.488Z,100207.59
2022-08-26T20:07:41.142Z,100200.84
2022-08-26T20:10:11.980Z,100203.38
2022-08-26T20:12:40.777Z,100195.47
2022-08-26T20:15:09.571Z,100197.94
2022-08-26T20:17:40.163Z,100192.16
2022-08-26T20:20:26.929Z,100195.00
2022-08-26T20:22:59.110Z,100193.31
2022-08-26T20:25:26.894Z,100184.88
2022-08-26T20:27:54.492Z,100182.34
2022-08-26T20:30:22.494Z,100176.97
2022-08-26T20:32:50.846Z,100173.59
2022-08-26T20:35:20.255Z,100175.03
2022-08-26T20:37:48.026Z,100165.44
2022-08-26T20:40:15.799Z,100158.41
2022-08-26T20:42:43.494Z,100167.44
2022-08-26T20:45:11.418Z,100170.59
2022-08-26T20:47:39.547Z,100168.88
2022-08-26T20:50:07.936Z,100170.34
2022-08-26T20:52:37.263Z,100178.41
2022-08-26T20:55:05.961Z,100187.06
2022-08-26T20:57:33.761Z,100192.44
2022-08-26T21:00:01.461Z,100193.41
2022-08-26T21:02:30.430Z,100206.09
2022-08-26T21:04:58.203Z,100204.41
2022-08-26T21:07:26.216Z,100210.94
2022-08-26T21:09:55.849Z,100213.22
2022-08-26T21:12:23.717Z,100222.72
2022-08-26T21:14:51.369Z,100213.81
2022-08-26T21:17:19.126Z,100212.28
2022-08-26T21:19:46.823Z,100210.03
2022-08-26T21:22:14.458Z,100215.53
2022-08-26T21:24:42.623Z,100212.16
2022-08-26T21:27:11.807Z,100210.78
2022-08-26T21:29:39.530Z,100210.78
2022-08-26T21:32:07.551Z,100218.31
2022-08-26T21:34:36.143Z,100222.88
2022-08-26T21:37:06.016Z,100220.66
2022-08-26T21:39:41.077Z,100224.59
2022-08-26T21:42:08.836Z,100214.47
2022-08-26T21:44:37.926Z,100203.75
2022-08-26T21:47:06.146Z,100196.69
2022-08-26T21:49:33.778Z,100202.06
2022-08-26T21:52:01.494Z,100211.66
2022-08-26T21:54:29.564Z,100200.50
2022-08-26T21:56:57.735Z,100203.75
2022-08-26T21:59:25.398Z,100200.94
2022-08-26T22:01:55.003Z,100208.53
2022-08-26T22:04:23.399Z,100205.72
2022-08-26T22:06:53.398Z,100206.28
2022-08-26T22:09:24.833Z,100206.72
2022-08-26T22:11:53.769Z,100205.16
2022-08-26T22:14:21.661Z,100221.81
2022-08-26T22:16:50.629Z,100217.72
2022-08-26T22:19:23.428Z,100230.84
2022-08-26T22:21:53.369Z,100255.03
2022-08-26T22:24:23.218Z,100272.81
2022-08-26T22:26:51.166Z,100286.28
2022-08-26T22:29:19.276Z,100285.41
2022-08-26T22:31:47.027Z,100296.16
2022-08-26T22:34:16.185Z,100302.25
2022-08-26T22:36:47.987Z,100299.47
2022-08-26T22:39:17.750Z,100332.06
2022-08-26T22:41:46.147Z,100346.88
2022-08-26T22:44:15.189Z,100317.91
2022-08-26T22:46:43.954Z,100306.75
2022-08-26T22:49:13.981Z,100287.22
2022-08-26T22:51:41.947Z,100294.16
2022-08-26T22:54:11.774Z,100291.59
2022-08-26T22:56:40.093Z,100312.34
2022-08-26T22:59:08.343Z,100329.03
2022-08-26T23:01:37.168Z,100318.03
2022-08-26T23:04:06.567Z,100299.56
2022-08-26T23:06:36.318Z,100292.66
2022-08-26T23:09:05.697Z,100291.81
2022-08-26T23:11:35.383Z,100304.19
2022-08-26T23:14:06.371Z,100310.97
2022-08-26T23:16:37.849Z,100289.88
2022-08-26T23:19:08.410Z,100280.31
2022-08-26T23:21:36.165Z,100287.34
2022-08-26T23:24:04.506Z,100287.44
2022-08-26T23:26:32.361Z,100282.09
2022-08-26T23:29:01.429Z,100274.47
2022-08-26T23:31:29.272Z,100272.91
2022-08-26T23:33:57.177Z,100264.06
2022-08-26T23:36:26.080Z,100258.72
2022-08-26T23:38:54.128Z,100256.91
2022-08-26T23:41:22.409Z,100236.41
2022-08-26T23:43:50.653Z,100248.91
2022-08-26T23:46:20.266Z,100236.78
2022-08-26T23:48:48.183Z,100231.34
2022-08-26T23:51:16.175Z,100240.91
2022-08-26T23:53:43.812Z,100218.38
2022-08-26T23:56:14.302Z,100231.81
2022-08-26T23:58:42.275Z,100221.03
